sensor_id;sensor_type;location;lat;lon;timestamp;pressure;altitude;pressure_sealevel;temperature;humidity
5755;BME280;2902;42.130;24.732;2024-03-02T00:00:32;99140.16;;;9.76;100.00
5755;BME280;2902;42.130;24.732;2024-03-02T00:02:58;99147.50;;;9.80;100.00
5755;BME280;2902;42.130;24.732;2024-03-02T00:05:25;99130.50;;;9.62;100.00
5755;BME280;2902;42.130;24.732;2024-03-02T00:07:54;99133.19;;;9.75;100.00
5755;BME280;2902;42.130;24.732;2024-03-02T00:10:22;99136.47;;;9.70;100.00
5755;BME280;2902;42.130;24.732;2024-03-02T00:12:50;99137.06;;;9.72;100.00
5755;BME280;2902;42.130;24.732;2024-03-02T00:15:37;99140.56;;;9.86;100.00
5755;BME280;2902;42.130;24.732;2024-03-02T00:18:07;99136.69;;;9.82;100.00
5755;BME280;2902;42.130;24.732;2024-03-02T00:20:34;99131.41;;;9.88;100.00
5755;BME280;2902;42.130;24.732;2024-03-02T00:23:03;99133.16;;;9.68;100.00
5755;BME280;2902;42.130;24.732;2024-03-02T00:25:37;99126.03;;;9.69;100.00
5755;BME280;2902;42.130;24.732;2024-03-02T00:28:05;99123.59;;;9.74;100.00
5755;BME280;2902;42.130;24.732;2024-03-02T00:30:52;99130.91;;;9.65;100.00
5755;BME280;2902;42.130;24.732;2024-03-02T00:33:21;99133.00;;;9.76;100.00
5755;BME280;2902;42.130;24.732;2024-03-02T00:35:49;99136.84;;;9.67;100.00
5755;BME280;2902;42.130;24.732;2024-03-02T00:38:16;99120.25;;;9.52;100.00
5755;BME280;2902;42.130;24.732;2024-03-02T00:40:43;99124.38;;;9.61;100.00
5755;BME280;2902;42.130;24.732;2024-03-02T00:43:26;99119.69;;;9.63;100.00
5755;BME280;2902;42.130;24.732;2024-03-02T00:46:04;99111.16;;;9.74;100.00
5755;BME280;2902;42.130;24.732;2024-03-02T00:48:31;99107.50;;;9.82;100.00
5755;BME280;2902;42.130;24.732;2024-03-02T00:51:01;99114.44;;;9.83;100.00
5755;BME280;2902;42.130;24.732;2024-03-02T00:53:29;99118.16;;;9.95;100.00
5755;BME280;2902;42.130;24.732;2024-03-02T00:55:56;99104.28;;;9.99;100.00
5755;BME280;2902;42.130;24.732;2024-03-02T00:58:23;99102.03;;;10.03;100.00
5755;BME280;2902;42.130;24.732;2024-03-02T01:00:50;99103.47;;;9.99;100.00
5755;BME280;2902;42.130;24.732;2024-03-02T01:03:18;99090.41;;;10.04;100.00
5755;BME280;2902;42.130;24.732;2024-03-02T01:05:45;99095.34;;;10.07;100.00
5755;BME280;2902;42.130;24.732;2024-03-02T01:08:12;99089.84;;;10.08;100.00
5755;BME280;2902;42.130;24.732;2024-03-02T01:10:39;99092.28;;;10.10;100.00
5755;BME280;2902;42.130;24.732;2024-03-02T01:13:05;99083.31;;;10.11;100.00
5755;BME280;2902;42.130;24.732;2024-03-02T01:15:33;99085.47;;;9.88;100.00
5755;BME280;2902;42.130;24.732;2024-03-02T01:18:00;99086.69;;;9.85;100.00
5755;BME280;2902;42.130;24.732;2024-03-02T01:20:28;99079.78;;;9.91;100.00
5755;BME280;2902;42.130;24.732;2024-03-02T01:22:55;99078.94;;;9.84;100.00
5755;BME280;2902;42.130;24.732;2024-03-02T01:25:21;99081.81;;;9.89;100.00
5755;BME280;2902;42.130;24.732;2024-03-02T01:27:48;99080.22;;;9.94;100.00
5755;BME280;2902;42.130;24.732;2024-03-02T01:30:15;99084.69;;;9.94;100.00
5755;BME280;2902;42.130;24.732;2024-03-02T01:32:42;99075.50;;;9.90;100.00
5755;BME280;2902;42.130;24.732;2024-03-02T01:35:08;99074.06;;;9.81;100.00
5755;BME280;2902;42.130;24.732;2024-03-02T01:37:37;99080.38;;;9.80;100.00
5755;BME280;2902;42.130;24.732;2024-03-02T01:40:04;99078.34;;;9.82;100.00
5755;BME280;2902;42.130;24.732;2024-03-02T01:42:35;99073.44;;;9.79;100.00
5755;BME280;2902;42.130;24.732;2024-03-02T01:45:03;99078.09;;;9.64;100.00
5755;BME280;2902;42.130;24.732;2024-03-02T01:47:30;99079.72;;;9.65;100.00
5755;BME280;2902;42.130;24.732;2024-03-02T01:49:57;99070.16;;;9.64;100.00
5755;BME280;2902;42.130;24.732;2024-03-02T01:52:25;99076.69;;;9.68;100.00
5755;BME280;2902;42.130;24.732;2024-03-02T01:54:53;99077.31;;;9.76;100.00
5755;BME280;2902;42.130;24.732;2024-03-02T01:57:19;99080.56;;;9.72;100.00
5755;BME280;2902;42.130;24.732;2024-03-02T01:59:46;99075.66;;;9.75;100.00
5755;BME280;2902;42.130;24.732;2024-03-02T02:02:14;99068.53;;;9.76;100.00
5755;BME280;2902;42.130;24.732;2024-03-02T02:04:40;99069.97;;;9.78;100.00
5755;BME280;2902;42.130;24.732;2024-03-02T02:07:07;99072.38;;;9.73;100.00
5755;BME280;2902;42.130;24.732;2024-03-02T02:09:34;99064.47;;;9.80;100.00
5755;BME280;2902;42.130;24.732;2024-03-02T02:12:02;99065.66;;;9.84;100.00
5755;BME280;2902;42.130;24.732;2024-03-02T02:14:32;99061.16;;;9.65;100.00
5755;BME280;2902;42.130;24.732;2024-03-02T02:16:58;99068.28;;;9.58;100.00
5755;BME280;2902;42.130;24.732;2024-03-02T02:19:25;99058.50;;;9.65;100.00
5755;BME280;2902;42.130;24.732;2024-03-02T02:21:53;99059.34;;;9.72;100.00
5755;BME280;2902;42.130;24.732;2024-03-02T02:24:20;99058.13;;;9.68;100.00
5755;BME280;2902;42.130;24.732;2024-03-02T02:26:47;99060.31;;;9.51;100.00
5755;BME280;2902;42.130;24.732;2024-03-02T02:29:14;99061.22;;;9.24;100.00
5755;BME280;2902;42.130;24.732;2024-03-02T02:31:41;99065.09;;;9.22;100.00
5755;BME280;2902;42.130;24.732;2024-03-02T02:34:08;99066.78;;;9.36;100.00
5755;BME280;2902;42.130;24.732;2024-03-02T02:36:37;99066.63;;;9.44;100.00
5755;BME280;2902;42.130;24.732;2024-03-02T02:39:08;99058.88;;;9.49;100.00
5755;BME280;2902;42.130;24.732;2024-03-02T02:41:36;99053.38;;;9.57;100.00
5755;BME280;2902;42.130;24.732;2024-03-02T02:44:03;99053.59;;;9.62;100.00
5755;BME280;2902;42.130;24.732;2024-03-02T02:46:29;99063.34;;;9.48;100.00
5755;BME280;2902;42.130;24.732;2024-03-02T02:48:56;99062.31;;;9.43;100.00
5755;BME280;2902;42.130;24.732;2024-03-02T02:51:23;99055.59;;;9.47;100.00
5755;BME280;2902;42.130;24.732;2024-03-02T02:53:50;99051.22;;;9.20;100.00
5755;BME280;2902;42.130;24.732;2024-03-02T02:56:18;99051.63;;;9.17;100.00
5755;BME280;2902;42.130;24.732;2024-03-02T02:58:45;99061.44;;;9.23;100.00
5755;BME280;2902;42.130;24.732;2024-03-02T03:01:12;99060.81;;;9.21;100.00
5755;BME280;2902;42.130;24.732;2024-03-02T03:03:38;99052.25;;;9.19;100.00
5755;BME280;2902;42.130;24.732;2024-03-02T03:06:06;99046.94;;;9.12;100.00
5755;BME280;2902;42.130;24.732;2024-03-02T03:08:32;99050.81;;;9.16;100.00
5755;BME280;2902;42.130;24.732;2024-03-02T03:10:59;99061.63;;;9.15;100.00
5755;BME280;2902;42.130;24.732;2024-03-02T03:13:27;99056.88;;;9.04;100.00
5755;BME280;2902;42.130;24.732;2024-03-02T03:15:54;99054.91;;;9.19;100.00
5755;BME280;2902;42.130;24.732;2024-03-02T03:18:21;99061.44;;;9.23;100.00
5755;BME280;2902;42.130;24.732;2024-03-02T03:20:47;99061.63;;;9.21;100.00
5755;BME280;2902;42.130;24.732;2024-03-02T03:23:15;99062.06;;;9.31;100.00
5755;BME280;2902;42.130;24.732;2024-03-02T03:25:42;99057.16;;;9.28;100.00
5755;BME280;2902;42.130;24.732;2024-03-02T03:28:09;99056.75;;;9.25;100.00
5755;BME280;2902;42.130;24.732;2024-03-02T03:30:38;99046.28;;;9.10;100.00
5755;BME280;2902;42.130;24.732;2024-03-02T03:33:05;99043.28;;;9.20;100.00
5755;BME280;2902;42.130;24.732;2024-03-02T03:35:32;99046.16;;;9.25;100.00
5755;BME280;2902;42.130;24.732;2024-03-02T03:37:59;99051.69;;;9.36;100.00
5755;BME280;2902;42.130;24.732;2024-03-02T03:40:25;99045.72;;;9.15;100.00
5755;BME280;2902;42.130;24.732;2024-03-02T03:42:52;99046.31;;;9.17;100.00
5755;BME280;2902;42.130;24.732;2024-03-02T03:45:20;99043.88;;;9.22;100.00
5755;BME280;2902;42.130;24.732;2024-03-02T03:47:48;99041.00;;;9.10;100.00
5755;BME280;2902;42.130;24.732;2024-03-02T03:50:15;99044.53;;;9.24;100.00
5755;BME280;2902;42.130;24.732;2024-03-02T03:52:42;99047.78;;;9.32;100.00
5755;BME280;2902;42.130;24.732;2024-03-02T03:55:09;99045.19;;;9.39;100.00
5755;BME280;2902;42.130;24.732;2024-03-02T03:57:35;99045.41;;;9.44;100.00
5755;BME280;2902;42.130;24.732;2024-03-02T04:00:03;99046.84;;;9.53;100.00
5755;BME280;2902;42.130;24.732;2024-03-02T04:02:30;99032.38;;;9.49;100.00
5755;BME280;2902;42.130;24.732;2024-03-02T04:04:58;99048.50;;;9.67;100.00
5755;BME280;2902;42.130;24.732;2024-03-02T04:07:24;99052.41;;;9.71;100.00
5755;BME280;2902;42.130;24.732;2024-03-02T04:09:51;99056.47;;;9.67;100.00
5755;BME280;2902;42.130;24.732;2024-03-02T04:12:18;99060.59;;;9.76;100.00
5755;BME280;2902;42.130;24.732;2024-03-02T04:14:44;99059.75;;;9.69;100.00
5755;BME280;2902;42.130;24.732;2024-03-02T04:17:11;99060.97;;;9.60;100.00
5755;BME280;2902;42.130;24.732;2024-03-02T04:19:38;99054.63;;;9.61;100.00
5755;BME280;2902;42.130;24.732;2024-03-02T04:22:06;99064.22;;;9.62;100.00
5755;BME280;2902;42.130;24.732;2024-03-02T04:24:33;99067.25;;;9.52;100.00
5755;BME280;2902;42.130;24.732;2024-03-02T04:27:00;99065.44;;;9.59;100.00
5755;BME280;2902;42.130;24.732;2024-03-02T04:29:27;99065.03;;;9.62;100.00
5755;BME280;2902;42.130;24.732;2024-03-02T04:31:54;99057.88;;;9.63;100.00
5755;BME280;2902;42.130;24.732;2024-03-02T04:34:21;99061.75;;;9.67;100.00
5755;BME280;2902;42.130;24.732;2024-03-02T04:36:47;99063.81;;;9.71;100.00
5755;BME280;2902;42.130;24.732;2024-03-02T04:39:16;99064.22;;;9.75;100.00
5755;BME280;2902;42.130;24.732;2024-03-02T04:41:43;99061.19;;;9.71;100.00
5755;BME280;2902;42.130;24.732;2024-03-02T04:44:10;99058.53;;;9.71;100.00
5755;BME280;2902;42.130;24.732;2024-03-02T04:46:36;99055.66;;;9.60;100.00
5755;BME280;2902;42.130;24.732;2024-03-02T04:49:03;99053.81;;;9.67;100.00
5755;BME280;2902;42.130;24.732;2024-03-02T04:51:30;99052.41;;;9.71;100.00
5755;BME280;2902;42.130;24.732;2024-03-02T04:53:56;99057.31;;;9.74;100.00
5755;BME280;2902;42.130;24.732;2024-03-02T04:56:25;99054.84;;;9.72;100.00
5755;BME280;2902;42.130;24.732;2024-03-02T04:59:09;99058.53;;;9.78;100.00
5755;BME280;2902;42.130;24.732;2024-03-02T05:01:36;99047.94;;;9.84;100.00
5755;BME280;2902;42.130;24.732;2024-03-02T05:04:03;99064.47;;;9.86;100.00
5755;BME280;2902;42.130;24.732;2024-03-02T05:06:30;99064.69;;;9.85;100.00
5755;BME280;2902;42.130;24.732;2024-03-02T05:08:56;99064.25;;;9.81;100.00
5755;BME280;2902;42.130;24.732;2024-03-02T05:11:24;99061.81;;;9.80;100.00
5755;BME280;2902;42.130;24.732;2024-03-02T05:14:05;99069.16;;;9.78;100.00
5755;BME280;2902;42.130;24.732;2024-03-02T05:16:33;99059.97;;;9.74;100.00
5755;BME280;2902;42.130;24.732;2024-03-02T05:18:59;99074.75;;;9.36;100.00
5755;BME280;2902;42.130;24.732;2024-03-02T05:21:26;99067.41;;;9.38;100.00
5755;BME280;2902;42.130;24.732;2024-03-02T05:23:53;99069.06;;;9.39;100.00
5755;BME280;2902;42.130;24.732;2024-03-02T05:26:19;99074.28;;;9.26;100.00
5755;BME280;2902;42.130;24.732;2024-03-02T05:28:47;99079.03;;;9.37;100.00
5755;BME280;2902;42.130;24.732;2024-03-02T05:31:15;99080.47;;;9.46;100.00
5755;BME280;2902;42.130;24.732;2024-03-02T05:33:42;99085.56;;;9.47;100.00
5755;BME280;2902;42.130;24.732;2024-03-02T05:36:09;99089.44;;;9.45;100.00
5755;BME280;2902;42.130;24.732;2024-03-02T05:38:36;99086.44;;;9.54;100.00
5755;BME280;2902;42.130;24.732;2024-03-02T05:41:03;99096.84;;;9.56;100.00
5755;BME280;2902;42.130;24.732;2024-03-02T05:43:30;99093.56;;;9.54;100.00
5755;BME280;2902;42.130;24.732;2024-03-02T05:45:58;99098.06;;;9.60;100.00
5755;BME280;2902;42.130;24.732;2024-03-02T05:48:25;99096.41;;;9.52;100.00
5755;BME280;2902;42.130;24.732;2024-03-02T05:50:51;99089.66;;;9.50;100.00
5755;BME280;2902;42.130;24.732;2024-03-02T05:53:18;99082.75;;;9.55;100.00
5755;BME280;2902;42.130;24.732;2024-03-02T05:55:45;99089.31;;;9.66;100.00
5755;BME280;2902;42.130;24.732;2024-03-02T05:58:12;99101.53;;;9.67;100.00
5755;BME280;2902;42.130;24.732;2024-03-02T06:00:51;99092.78;;;9.66;100.00
5755;BME280;2902;42.130;24.732;2024-03-02T06:03:19;99087.03;;;9.56;100.00
5755;BME280;2902;42.130;24.732;2024-03-02T06:05:46;99095.25;;;9.68;100.00
5755;BME280;2902;42.130;24.732;2024-03-02T06:08:14;99090.75;;;9.75;100.00
5755;BME280;2902;42.130;24.732;2024-03-02T06:10:41;99092.00;;;9.79;100.00
5755;BME280;2902;42.130;24.732;2024-03-02T06:13:08;99089.53;;;9.84;100.00
5755;BME280;2902;42.130;24.732;2024-03-02T06:15:34;99086.28;;;9.82;100.00
5755;BME280;2902;42.130;24.732;2024-03-02T06:18:01;99084.88;;;9.86;100.00
5755;BME280;2902;42.130;24.732;2024-03-02T06:20:29;99088.75;;;9.96;100.00
5755;BME280;2902;42.130;24.732;2024-03-02T06:22:56;99092.84;;;9.99;100.00
5755;BME280;2902;42.130;24.732;2024-03-02T06:25:23;99096.72;;;10.03;100.00
5755;BME280;2902;42.130;24.732;2024-03-02T06:27:50;99103.25;;;10.00;100.00
5755;BME280;2902;42.130;24.732;2024-03-02T06:30:16;99105.50;;;9.97;100.00
5755;BME280;2902;42.130;24.732;2024-03-02T06:32:43;99106.69;;;9.88;100.00
5755;BME280;2902;42.130;24.732;2024-03-02T06:35:10;99105.91;;;9.94;100.00
5755;BME280;2902;42.130;24.732;2024-03-02T06:37:39;99104.34;;;10.45;100.00
5755;BME280;2902;42.130;24.732;2024-03-02T06:40:07;99098.19;;;10.70;100.00
5755;BME280;2902;42.130;24.732;2024-03-02T06:42:34;99103.09;;;10.73;100.00
5755;BME280;2902;42.130;24.732;2024-03-02T06:45:01;99103.53;;;10.64;100.00
5755;BME280;2902;42.130;24.732;2024-03-02T06:47:28;99101.06;;;10.69;100.00
5755;BME280;2902;42.130;24.732;2024-03-02T06:49:54;99115.38;;;10.68;100.00
5755;BME280;2902;42.130;24.732;2024-03-02T06:52:22;99113.09;;;10.71;100.00
5755;BME280;2902;42.130;24.732;2024-03-02T06:54:50;99122.75;;;10.66;100.00
5755;BME280;2902;42.130;24.732;2024-03-02T06:57:17;99127.03;;;10.60;100.00
5755;BME280;2902;42.130;24.732;2024-03-02T06:59:46;99134.19;;;10.47;100.00
5755;BME280;2902;42.130;24.732;2024-03-02T07:02:14;99130.50;;;10.35;100.00
5755;BME280;2902;42.130;24.732;2024-03-02T07:04:40;99129.25;;;10.31;100.00
5755;BME280;2902;42.130;24.732;2024-03-02T07:07:07;99114.13;;;10.12;100.00
5755;BME280;2902;42.130;24.732;2024-03-02T07:09:34;99122.09;;;10.18;100.00
5755;BME280;2902;42.130;24.732;2024-03-02T07:12:02;99123.94;;;10.18;100.00
5755;BME280;2902;42.130;24.732;2024-03-02T07:14:29;99118.25;;;10.21;100.00
5755;BME280;2902;42.130;24.732;2024-03-02T07:17:09;99109.25;;;10.22;100.00
5755;BME280;2902;42.130;24.732;2024-03-02T07:19:37;99108.03;;;10.31;100.00
5755;BME280;2902;42.130;24.732;2024-03-02T07:22:06;99111.72;;;10.43;100.00
5755;BME280;2902;42.130;24.732;2024-03-02T07:24:39;99117.84;;;10.50;100.00
5755;BME280;2902;42.130;24.732;2024-03-02T07:27:07;99129.66;;;10.47;100.00
5755;BME280;2902;42.130;24.732;2024-03-02T07:29:34;99117.84;;;10.50;100.00
5755;BME280;2902;42.130;24.732;2024-03-02T07:32:01;99118.63;;;10.31;100.00
5755;BME280;2902;42.130;24.732;2024-03-02T07:34:27;99119.44;;;10.18;100.00
5755;BME280;2902;42.130;24.732;2024-03-02T07:36:55;99133.34;;;10.27;100.00
5755;BME280;2902;42.130;24.732;2024-03-02T07:39:22;99132.50;;;10.33;100.00
5755;BME280;2902;42.130;24.732;2024-03-02T07:41:49;99131.72;;;10.32;100.00
5755;BME280;2902;42.130;24.732;2024-03-02T07:44:17;99135.41;;;10.38;100.00
5755;BME280;2902;42.130;24.732;2024-03-02T07:46:45;99127.38;;;10.05;100.00
5755;BME280;2902;42.130;24.732;2024-03-02T07:49:13;99119.47;;;10.25;100.00
5755;BME280;2902;42.130;24.732;2024-03-02T07:51:39;99124.78;;;10.44;100.00
5755;BME280;2902;42.130;24.732;2024-03-02T07:54:06;99122.31;;;10.56;100.00
5755;BME280;2902;42.130;24.732;2024-03-02T07:56:33;99119.84;;;10.61;100.00
5755;BME280;2902;42.130;24.732;2024-03-02T07:59:00;99122.31;;;10.69;100.00
5755;BME280;2902;42.130;24.732;2024-03-02T08:01:28;99135.41;;;10.64;100.00
5755;BME280;2902;42.130;24.732;2024-03-02T08:03:56;99144.19;;;10.71;100.00
5755;BME280;2902;42.130;24.732;2024-03-02T08:06:24;99149.69;;;10.56;100.00
5755;BME280;2902;42.130;24.732;2024-03-02T08:08:53;99149.69;;;10.56;100.00
5755;BME280;2902;42.130;24.732;2024-03-02T08:11:20;99146.03;;;10.64;100.00
5755;BME280;2902;42.130;24.732;2024-03-02T08:13:46;99149.69;;;10.56;100.00
5755;BME280;2902;42.130;24.732;2024-03-02T08:16:13;99143.38;;;10.44;100.00
5755;BME280;2902;42.130;24.732;2024-03-02T08:18:42;99150.91;;;10.41;100.00
5755;BME280;2902;42.130;24.732;2024-03-02T08:21:09;99134.56;;;10.57;100.00
5755;BME280;2902;42.130;24.732;2024-03-02T08:23:36;99134.16;;;10.73;100.00
5755;BME280;2902;42.130;24.732;2024-03-02T08:26:03;99119.84;;;10.67;100.00
5755;BME280;2902;42.130;24.732;2024-03-02T08:28:30;99127.81;;;10.87;100.00
5755;BME280;2902;42.130;24.732;2024-03-02T08:30:57;99112.06;;;10.98;100.00
5755;BME280;2902;42.130;24.732;2024-03-02T08:33:24;99123.50;;;11.06;100.00
5755;BME280;2902;42.130;24.732;2024-03-02T08:35:52;99126.94;;;11.06;100.00
5755;BME280;2902;42.130;24.732;2024-03-02T08:38:19;99123.47;;;11.12;100.00
5755;BME280;2902;42.130;24.732;2024-03-02T08:40:46;99139.22;;;11.14;100.00
5755;BME280;2902;42.130;24.732;2024-03-02T08:43:13;99133.94;;;11.07;100.00
5755;BME280;2902;42.130;24.732;2024-03-02T08:45:40;99134.13;;;11.06;100.00
5755;BME280;2902;42.130;24.732;2024-03-02T08:48:07;99138.81;;;11.10;100.00
5755;BME280;2902;42.130;24.732;2024-03-02T08:50:34;99122.66;;;11.12;100.00
5755;BME280;2902;42.130;24.732;2024-03-02T08:53:03;99126.72;;;11.14;100.00
5755;BME280;2902;42.130;24.732;2024-03-02T08:55:30;99126.31;;;11.17;100.00
5755;BME280;2902;42.130;24.732;2024-03-02T08:57:57;99122.63;;;11.18;100.00
5755;BME280;2902;42.130;24.732;2024-03-02T09:00:24;99122.63;;;11.18;99.49
5755;BME280;2902;42.130;24.732;2024-03-02T09:02:51;99132.03;;;11.21;99.62
5755;BME280;2902;42.130;24.732;2024-03-02T09:05:18;99119.78;;;11.20;99.63
5755;BME280;2902;42.130;24.732;2024-03-02T09:07:45;99135.69;;;11.26;99.27
5755;BME280;2902;42.130;24.732;2024-03-02T09:10:13;99136.91;;;11.30;99.23
5755;BME280;2902;42.130;24.732;2024-03-02T09:12:39;99131.56;;;11.37;99.22
5755;BME280;2902;42.130;24.732;2024-03-02T09:15:07;99122.56;;;11.44;98.88
5755;BME280;2902;42.130;24.732;2024-03-02T09:17:34;99129.31;;;11.47;97.59
5755;BME280;2902;42.130;24.732;2024-03-02T09:20:01;99133.56;;;11.54;97.68
5755;BME280;2902;42.130;24.732;2024-03-02T09:22:29;99142.56;;;11.53;97.10
5755;BME280;2902;42.130;24.732;2024-03-02T09:24:57;99146.69;;;11.49;96.99
5755;BME280;2902;42.130;24.732;2024-03-02T09:27:26;99138.94;;;11.41;97.06
5755;BME280;2902;42.130;24.732;2024-03-02T09:29:52;99130.78;;;11.23;98.14
5755;BME280;2902;42.130;24.732;2024-03-02T09:32:19;99136.88;;;11.37;98.85
5755;BME280;2902;42.130;24.732;2024-03-02T09:34:46;99143.41;;;11.47;99.08
5755;BME280;2902;42.130;24.732;2024-03-02T09:37:13;99136.81;;;11.56;99.39
5755;BME280;2902;42.130;24.732;2024-03-02T09:39:43;99142.38;;;11.61;99.10
5755;BME280;2902;42.130;24.732;2024-03-02T09:42:10;99139.72;;;11.61;98.79
5755;BME280;2902;42.130;24.732;2024-03-02T09:44:38;99140.09;;;11.65;98.70
5755;BME280;2902;42.130;24.732;2024-03-02T09:47:06;99142.31;;;11.74;97.80
5755;BME280;2902;42.130;24.732;2024-03-02T09:49:33;99141.91;;;11.77;97.32
5755;BME280;2902;42.130;24.732;2024-03-02T09:51:59;99145.75;;;11.81;96.12
5755;BME280;2902;42.130;24.732;2024-03-02T09:54:27;99143.94;;;11.75;96.40
5755;BME280;2902;42.130;24.732;2024-03-02T09:56:54;99137.53;;;11.83;96.45
5755;BME280;2902;42.130;24.732;2024-03-02T09:59:21;99145.91;;;11.93;96.28
5755;BME280;2902;42.130;24.732;2024-03-02T10:01:59;99148.53;;;11.99;95.45
5755;BME280;2902;42.130;24.732;2024-03-02T10:04:26;99149.97;;;11.95;94.68
5755;BME280;2902;42.130;24.732;2024-03-02T10:07:09;99142.44;;;11.86;95.23
5755;BME280;2902;42.130;24.732;2024-03-02T10:09:37;99138.75;;;11.87;96.17
5755;BME280;2902;42.130;24.732;2024-03-02T10:12:05;99135.47;;;11.91;95.83
5755;BME280;2902;42.130;24.732;2024-03-02T10:14:32;99137.00;;;12.05;96.11
5755;BME280;2902;42.130;24.732;2024-03-02T10:17:04;99133.84;;;12.21;96.33
5755;BME280;2902;42.130;24.732;2024-03-02T10:19:31;99128.66;;;12.33;96.18
5755;BME280;2902;42.130;24.732;2024-03-02T10:22:00;99134.34;;;12.36;94.88
5755;BME280;2902;42.130;24.732;2024-03-02T10:24:35;99134.31;;;12.43;93.81
5755;BME280;2902;42.130;24.732;2024-03-02T10:27:02;99135.88;;;12.50;92.70
5755;BME280;2902;42.130;24.732;2024-03-02T10:29:34;99135.88;;;12.50;92.04
5755;BME280;2902;42.130;24.732;2024-03-02T10:32:04;99127.31;;;12.48;91.79
5755;BME280;2902;42.130;24.732;2024-03-02T10:34:31;99128.22;;;12.60;92.50
5755;BME280;2902;42.130;24.732;2024-03-02T10:36:59;99128.31;;;12.72;92.43
5755;BME280;2902;42.130;24.732;2024-03-02T10:39:26;99118.94;;;12.87;92.39
5755;BME280;2902;42.130;24.732;2024-03-02T10:41:53;99125.31;;;12.86;89.42
5755;BME280;2902;42.130;24.732;2024-03-02T10:44:22;99112.97;;;12.92;91.09
5755;BME280;2902;42.130;24.732;2024-03-02T10:46:50;99106.75;;;13.04;91.20
5755;BME280;2902;42.130;24.732;2024-03-02T10:49:19;99108.28;;;13.12;88.99
5755;BME280;2902;42.130;24.732;2024-03-02T10:51:47;99100.34;;;13.23;89.42
5755;BME280;2902;42.130;24.732;2024-03-02T10:54:14;99112.59;;;13.31;87.02
5755;BME280;2902;42.130;24.732;2024-03-02T10:56:42;99098.44;;;13.12;88.81
5755;BME280;2902;42.130;24.732;2024-03-02T10:59:16;99091.94;;;13.08;89.82
5755;BME280;2902;42.130;24.732;2024-03-02T11:01:47;99100.22;;;13.00;88.81
5755;BME280;2902;42.130;24.732;2024-03-02T11:04:16;99092.91;;;12.89;89.17
5755;BME280;2902;42.130;24.732;2024-03-02T11:06:48;99094.09;;;12.93;89.34
5755;BME280;2902;42.130;24.732;2024-03-02T11:09:18;99089.91;;;13.04;89.76
5755;BME280;2902;42.130;24.732;2024-03-02T11:11:49;99091.84;;;13.15;89.48
5755;BME280;2902;42.130;24.732;2024-03-02T11:14:21;99096.97;;;13.16;87.84
5755;BME280;2902;42.130;24.732;2024-03-02T11:16:51;99088.06;;;13.22;88.38
5755;BME280;2902;42.130;24.732;2024-03-02T11:19:19;99092.34;;;13.23;88.18
5755;BME280;2902;42.130;24.732;2024-03-02T11:21:48;99084.81;;;13.20;87.86
5755;BME280;2902;42.130;24.732;2024-03-02T11:24:33;99088.50;;;13.19;87.03
5755;BME280;2902;42.130;24.732;2024-03-02T11:27:00;99084.34;;;13.23;87.07
5755;BME280;2902;42.130;24.732;2024-03-02T11:29:43;99072.88;;;13.23;89.42
5755;BME280;2902;42.130;24.732;2024-03-02T11:32:14;99076.66;;;13.15;89.44
5755;BME280;2902;42.130;24.732;2024-03-02T11:34:42;99075.47;;;13.11;89.42
5755;BME280;2902;42.130;24.732;2024-03-02T11:37:12;99075.47;;;13.11;89.22
5755;BME280;2902;42.130;24.732;2024-03-02T11:39:39;99068.38;;;13.05;89.45
5755;BME280;2902;42.130;24.732;2024-03-02T11:42:06;99070.28;;;12.98;90.10
5755;BME280;2902;42.130;24.732;2024-03-02T11:44:35;99049.44;;;12.89;91.03
5755;BME280;2902;42.130;24.732;2024-03-02T11:47:05;99052.38;;;12.81;91.01
5755;BME280;2902;42.130;24.732;2024-03-02T11:49:36;99050.75;;;12.62;91.67
5755;BME280;2902;42.130;24.732;2024-03-02T11:52:04;99057.28;;;12.41;92.21
5755;BME280;2902;42.130;24.732;2024-03-02T11:54:34;99054.03;;;12.39;92.75
5755;BME280;2902;42.130;24.732;2024-03-02T11:57:01;99045.44;;;12.37;93.99
5755;BME280;2902;42.130;24.732;2024-03-02T11:59:29;99034.34;;;12.40;95.61
5755;BME280;2902;42.130;24.732;2024-03-02T12:01:56;99042.91;;;12.42;95.67
5755;BME280;2902;42.130;24.732;2024-03-02T12:04:24;99033.75;;;12.38;94.32
5755;BME280;2902;42.130;24.732;2024-03-02T12:06:54;99033.59;;;12.33;93.94
5755;BME280;2902;42.130;24.732;2024-03-02T12:09:22;99023.94;;;12.14;95.48
5755;BME280;2902;42.130;24.732;2024-03-02T12:12:01;99033.47;;;12.22;96.27
5755;BME280;2902;42.130;24.732;2024-03-02T12:14:28;99036.09;;;12.28;96.01
5755;BME280;2902;42.130;24.732;2024-03-02T12:16:55;99032.06;;;12.19;96.73
5755;BME280;2902;42.130;24.732;2024-03-02T12:19:24;99026.50;;;11.96;97.02
5755;BME280;2902;42.130;24.732;2024-03-02T12:21:50;99022.53;;;11.81;97.86
5755;BME280;2902;42.130;24.732;2024-03-02T12:24:17;99023.69;;;11.91;98.11
5755;BME280;2902;42.130;24.732;2024-03-02T12:26:44;99021.13;;;12.03;97.94
5755;BME280;2902;42.130;24.732;2024-03-02T12:29:13;99018.03;;;12.06;98.18
5755;BME280;2902;42.130;24.732;2024-03-02T12:31:42;99011.25;;;12.10;99.13
5755;BME280;2902;42.130;24.732;2024-03-02T12:34:12;99011.81;;;12.18;98.94
5755;BME280;2902;42.130;24.732;2024-03-02T12:36:39;99020.75;;;12.24;96.41
5755;BME280;2902;42.130;24.732;2024-03-02T12:39:07;99021.63;;;11.93;96.16
5755;BME280;2902;42.130;24.732;2024-03-02T12:41:36;99020.88;;;11.86;97.78
5755;BME280;2902;42.130;24.732;2024-03-02T12:44:03;99021.06;;;11.85;97.49
5755;BME280;2902;42.130;24.732;2024-03-02T12:46:31;99022.50;;;11.87;97.59
5755;BME280;2902;42.130;24.732;2024-03-02T12:48:58;99024.81;;;11.77;97.39
5755;BME280;2902;42.130;24.732;2024-03-02T12:51:31;99022.38;;;11.76;97.81
5755;BME280;2902;42.130;24.732;2024-03-02T12:53:58;99025.09;;;11.56;97.93
5755;BME280;2902;42.130;24.732;2024-03-02T12:56:25;99029.63;;;11.62;98.99
5755;BME280;2902;42.130;24.732;2024-03-02T12:58:53;99024.28;;;11.62;98.94
5755;BME280;2902;42.130;24.732;2024-03-02T13:01:20;99033.19;;;11.81;98.73
5755;BME280;2902;42.130;24.732;2024-03-02T13:03:49;99035.59;;;11.89;97.58
5755;BME280;2902;42.130;24.732;2024-03-02T13:06:17;99037.25;;;11.83;96.13
5755;BME280;2902;42.130;24.732;2024-03-02T13:08:45;99038.38;;;11.69;97.71
5755;BME280;2902;42.130;24.732;2024-03-02T13:11:12;99046.06;;;11.84;98.88
5755;BME280;2902;42.130;24.732;2024-03-02T13:13:40;99040.06;;;11.88;98.26